createdAt,value
2023-01-12T00:03:41.192Z,97901.22
2023-01-12T00:07:43.208Z,97891.66
2023-01-12T00:11:45.201Z,97888.16
2023-01-12T00:16:06.034Z,97882.94
2023-01-12T00:20:09.029Z,97886.34
2023-01-12T00:24:11.037Z,97881.06
2023-01-12T00:28:13.014Z,97871.38
2023-01-12T00:32:17.053Z,97880.81
2023-01-12T00:36:19.592Z,97879.06
2023-01-12T00:40:21.620Z,97886.78
2023-01-12T00:44:43.180Z,97872.69
2023-01-12T00:48:45.176Z,97865.72
2023-01-12T00:52:47.169Z,97860.56
2023-01-12T00:56:49.173Z,97859.63
2023-01-12T01:00:51.270Z,97862.16
2023-01-12T01:04:53.492Z,97868.22
2023-01-12T01:08:55.513Z,97867.38
2023-01-12T01:12:57.495Z,97867.44
2023-01-12T01:16:59.490Z,97883.88
2023-01-12T01:21:02.522Z,97875.19
2023-01-12T01:25:04.878Z,97870.97
2023-01-12T01:29:06.888Z,97867.63
2023-01-12T01:33:09.321Z,97867.66
2023-01-12T01:37:12.040Z,97859.91
2023-01-12T01:41:23.257Z,97853.84
2023-01-12T01:45:25.258Z,97859.09
2023-01-12T01:49:40.590Z,97857.44
2023-01-12T01:53:46.779Z,97858.38
2023-01-12T01:57:55.242Z,97855.78
2023-01-12T02:01:57.772Z,97853.28
2023-01-12T02:06:00.051Z,97840.28
2023-01-12T02:10:02.591Z,97835.91
2023-01-12T02:14:23.441Z,97837.75
2023-01-12T02:18:38.855Z,97837.81
2023-01-12T02:23:03.075Z,97830.81
2023-01-12T02:27:30.167Z,97821.41
2023-01-12T02:31:41.052Z,97815.19
2023-01-12T02:35:48.990Z,97808.78
2023-01-12T02:40:01.248Z,97806.50
2023-01-12T02:44:05.270Z,97796.34
2023-01-12T02:48:16.407Z,97797.34
2023-01-12T02:52:21.572Z,97785.31
2023-01-12T02:56:34.185Z,97807.91
2023-01-12T03:00:39.058Z,97794.03
2023-01-12T03:04:41.888Z,97795.75
2023-01-12T03:08:47.527Z,97808.78
2023-01-12T03:12:51.530Z,97805.25
2023-01-12T03:16:56.404Z,97798.34
2023-01-12T03:21:04.665Z,97800.00
2023-01-12T03:25:13.499Z,97807.69
2023-01-12T03:29:23.021Z,97801.66
2023-01-12T03:33:26.166Z,97792.84
2023-01-12T03:37:54.328Z,97790.97
2023-01-12T03:42:03.687Z,97784.72
2023-01-12T03:46:19.044Z,97790.72
2023-01-12T03:50:27.194Z,97790.66
2023-01-12T03:54:30.898Z,97793.09
2023-01-12T03:58:34.910Z,97789.50
2023-01-12T04:02:36.956Z,97779.88
2023-01-12T04:06:38.909Z,97775.56
2023-01-12T04:10:40.885Z,97777.22
2023-01-12T04:14:46.812Z,97771.13
2023-01-12T04:18:49.914Z,97775.47
2023-01-12T04:22:51.956Z,97759.03
2023-01-12T04:26:54.084Z,97765.13
2023-01-12T04:30:56.082Z,97759.19
2023-01-12T04:34:58.069Z,97755.03
2023-01-12T04:39:00.109Z,97756.31
2023-01-12T04:43:02.338Z,97745.25
2023-01-12T04:47:07.033Z,97731.63
2023-01-12T04:51:09.550Z,97729.94
2023-01-12T04:55:11.569Z,97738.63
2023-01-12T04:59:13.640Z,97723.00
2023-01-12T05:03:15.987Z,97728.25
2023-01-12T05:07:18.103Z,97724.84
2023-01-12T05:11:21.246Z,97715.22
2023-01-12T05:15:23.611Z,97701.34
2023-01-12T05:19:25.632Z,97709.19
2023-01-12T05:23:27.635Z,97691.81
2023-01-12T05:27:29.641Z,97684.00
2023-01-12T05:31:33.986Z,97688.31
2023-01-12T05:35:38.068Z,97669.13
2023-01-12T05:39:40.056Z,97660.44
2023-01-12T05:43:52.181Z,97650.84
2023-01-12T05:47:59.006Z,97642.19
2023-01-12T05:52:00.993Z,97644.75
2023-01-12T05:56:12.498Z,97653.47
2023-01-12T06:00:14.852Z,97657.84
2023-01-12T06:04:16.907Z,97651.66
2023-01-12T06:08:19.111Z,97642.09
2023-01-12T06:12:39.689Z,97629.06
2023-01-12T06:16:43.350Z,97618.66
2023-01-12T06:20:45.512Z,97633.47
2023-01-12T06:24:49.141Z,97621.41
2023-01-12T06:28:51.300Z,97630.97
2023-01-12T06:32:53.370Z,97624.91
2023-01-12T06:36:55.374Z,97617.94
2023-01-12T06:41:05.388Z,97615.47
2023-01-12T06:45:07.958Z,97600.09
2023-01-12T06:49:10.527Z,97591.25
2023-01-12T06:53:12.525Z,97583.16
2023-01-12T06:57:14.587Z,97589.09
2023-01-12T07:01:16.940Z,97586.44
2023-01-12T07:05:19.144Z,97584.09
2023-01-12T07:09:21.575Z,97574.78
2023-01-12T07:13:23.616Z,97570.84
2023-01-12T07:17:25.612Z,97553.75
2023-01-12T07:21:27.601Z,97563.28
2023-01-12T07:25:29.643Z,97571.06
2023-01-12T07:29:31.634Z,97558.06
2023-01-12T07:33:34.432Z,97559.78
2023-01-12T07:37:36.444Z,97551.16
2023-01-12T07:41:57.158Z,97555.53
2023-01-12T07:45:59.699Z,97543.38
2023-01-12T07:50:01.745Z,97548.66
2023-01-12T07:54:03.793Z,97553.00
2023-01-12T07:58:08.725Z,97536.41
2023-01-12T08:02:17.281Z,97534.81
2023-01-12T08:06:19.342Z,97543.56
2023-01-12T08:10:21.317Z,97544.47
2023-01-12T08:14:28.104Z,97543.47
2023-01-12T08:19:15.545Z,97555.59
2023-01-12T08:23:28.268Z,97549.44
2023-01-12T08:27:33.646Z,97545.81
2023-01-12T08:31:36.420Z,97556.25
2023-01-12T08:35:38.613Z,97539.63
2023-01-12T08:39:40.961Z,97536.16
2023-01-12T08:44:01.635Z,97536.16
2023-01-12T08:48:03.859Z,97557.06
2023-01-12T08:52:05.886Z,97557.88
2023-01-12T08:56:08.237Z,97555.19
2023-01-12T09:00:10.836Z,97557.63
2023-01-12T09:04:12.859Z,97545.31
2023-01-12T09:08:15.034Z,97546.84
2023-01-12T09:12:17.025Z,97537.22
2023-01-12T09:16:20.090Z,97540.69
2023-01-12T09:20:22.950Z,97547.47
2023-01-12T09:24:25.016Z,97546.41
2023-01-12T09:28:27.081Z,97551.34
2023-01-12T09:32:36.409Z,97556.41
2023-01-12T09:36:40.900Z,97552.84
2023-01-12T09:40:43.877Z,97550.88
2023-01-12T09:45:08.567Z,97555.13
2023-01-12T09:49:12.338Z,97561.88
2023-01-12T09:53:25.699Z,97567.63
2023-01-12T09:58:09.047Z,97569.16
2023-01-12T10:02:13.305Z,97572.63
2023-01-12T10:06:17.953Z,97576.66
2023-01-12T10:10:20.079Z,97580.97
2023-01-12T10:14:34.422Z,97569.50
2023-01-12T10:18:42.469Z,97570.94
2023-01-12T10:22:48.893Z,97563.84
2023-01-12T10:26:59.749Z,97566.50
2023-01-12T10:31:02.907Z,97564.50
2023-01-12T10:35:12.165Z,97557.38
2023-01-12T10:39:35.564Z,97537.91
2023-01-12T10:43:39.412Z,97547.13
2023-01-12T10:47:42.602Z,97551.25
2023-01-12T10:51:54.779Z,97545.09
2023-01-12T10:55:58.685Z,97556.31
2023-01-12T11:00:02.730Z,97548.47
2023-01-12T11:04:06.046Z,97547.56
2023-01-12T11:08:27.508Z,97554.44
2023-01-12T11:12:38.354Z,97547.28
2023-01-12T11:16:50.148Z,97552.41
2023-01-12T11:21:00.610Z,97541.94
2023-01-12T11:25:21.963Z,97539.28
2023-01-12T11:29:45.851Z,97531.25
2023-01-12T11:34:01.922Z,97534.56
2023-01-12T11:38:11.829Z,97524.75
2023-01-12T11:42:40.525Z,97538.72
2023-01-12T11:46:50.000Z,97522.34
2023-01-12T11:50:53.675Z,97522.41
2023-01-12T11:54:55.728Z,97512.78
2023-01-12T11:59:13.489Z,97502.47
2023-01-12T12:03:19.019Z,97492.78
2023-01-12T12:07:38.535Z,97497.00
2023-01-12T12:11:51.738Z,97491.47
2023-01-12T12:16:14.082Z,97489.50
2023-01-12T12:20:40.178Z,97492.06
2023-01-12T12:25:20.602Z,97489.34
2023-01-12T12:29:31.700Z,97494.31
2023-01-12T12:33:42.687Z,97506.22
2023-01-12T12:37:53.781Z,97511.22
2023-01-12T12:42:45.548Z,97502.38
2023-01-12T12:47:05.749Z,97496.97
2023-01-12T12:51:09.188Z,97480.53
2023-01-12T12:55:13.070Z,97485.69
2023-01-12T12:59:33.263Z,97489.91
2023-01-12T13:03:41.508Z,97474.13
2023-01-12T13:07:51.218Z,97487.22
2023-01-12T13:12:00.056Z,97484.69
2023-01-12T13:16:17.434Z,97475.97
2023-01-12T13:20:25.792Z,97483.53
2023-01-12T13:24:39.725Z,97479.84
2023-01-12T13:28:41.752Z,97472.78
2023-01-12T13:32:56.210Z,97480.56
2023-01-12T13:37:17.182Z,97485.00
2023-01-12T13:41:55.606Z,97468.25
2023-01-12T13:46:15.018Z,97470.97
2023-01-12T13:50:21.046Z,97479.72
2023-01-12T13:54:23.150Z,97474.59
2023-01-12T13:58:26.109Z,97482.66
2023-01-12T14:02:32.204Z,97476.63
2023-01-12T14:06:45.541Z,97479.50
2023-01-12T14:10:56.457Z,97494.38
2023-01-12T14:15:26.348Z,97485.59
2023-01-12T14:19:28.491Z,97482.97
2023-01-12T14:23:33.602Z,97476.91
2023-01-12T14:27:35.645Z,97490.72
2023-01-12T14:31:41.843Z,97471.50
2023-01-12T14:35:46.884Z,97476.75
2023-01-12T14:39:49.101Z,97472.41
2023-01-12T14:44:10.390Z,97479.34
2023-01-12T14:48:43.857Z,97466.44
2023-01-12T14:52:47.003Z,97472.50
2023-01-12T14:56:56.544Z,97468.19
2023-01-12T15:00:58.758Z,97464.69
2023-01-12T15:05:17.622Z,97472.53
2023-01-12T15:09:26.401Z,97469.94
2023-01-12T15:13:33.247Z,97468.19
2023-01-12T15:17:53.983Z,97468.13
2023-01-12T15:22:16.526Z,97468.84
2023-01-12T15:26:19.318Z,97466.16
2023-01-12T15:30:21.405Z,97480.06
2023-01-12T15:34:23.410Z,97473.22
2023-01-12T15:38:28.905Z,97460.97
2023-01-12T15:42:30.937Z,97468.84
2023-01-12T15:46:32.942Z,97466.16
2023-01-12T15:50:38.547Z,97473.06
2023-01-12T15:54:41.130Z,97479.28
2023-01-12T15:58:43.134Z,97477.53
2023-01-12T16:02:45.647Z,97475.84
2023-01-12T16:06:48.806Z,97477.00
2023-01-12T16:11:09.303Z,97472.59
2023-01-12T16:15:18.624Z,97469.94
2023-01-12T16:19:22.261Z,97468.19
2023-01-12T16:23:25.718Z,97471.78
2023-01-12T16:27:28.082Z,97465.91
2023-01-12T16:31:31.363Z,97460.81
2023-01-12T16:35:33.543Z,97466.41
2023-01-12T16:39:35.529Z,97473.59
2023-01-12T16:43:38.160Z,97471.03
2023-01-12T16:47:40.170Z,97459.03
2023-01-12T16:51:42.265Z,97451.34
2023-01-12T16:55:44.291Z,97446.75
2023-01-12T16:59:46.831Z,97437.78
2023-01-12T17:03:50.716Z,97439.38
2023-01-12T17:07:54.329Z,97436.72
2023-01-12T17:11:58.319Z,97434.00
2023-01-12T17:16:00.646Z,97434.84
2023-01-12T17:20:04.180Z,97442.66
2023-01-12T17:24:06.547Z,97449.69
2023-01-12T17:28:08.704Z,97439.38
2023-01-12T17:32:10.775Z,97441.09
2023-01-12T17:36:13.649Z,97438.47
2023-01-12T17:40:15.974Z,97434.16
2023-01-12T17:44:18.529Z,97436.84
2023-01-12T17:48:20.591Z,97442.84
2023-01-12T17:52:23.079Z,97448.16
2023-01-12T17:56:27.078Z,97444.47
2023-01-12T18:00:29.148Z,97435.91
2023-01-12T18:04:31.482Z,97441.47
2023-01-12T18:08:34.361Z,97431.47
2023-01-12T18:12:36.345Z,97428.66
2023-01-12T18:16:38.707Z,97438.25
2023-01-12T18:20:40.698Z,97439.03
2023-01-12T18:24:42.688Z,97445.34
2023-01-12T18:28:44.843Z,97443.00
2023-01-12T18:32:46.819Z,97447.72
2023-01-12T18:36:48.852Z,97437.56
2023-01-12T18:41:10.809Z,97438.63
2023-01-12T18:45:12.815Z,97427.59
2023-01-12T18:49:14.945Z,97421.88
2023-01-12T18:53:25.135Z,97425.56
2023-01-12T18:57:30.373Z,97420.38
2023-01-12T19:01:32.467Z,97410.84
2023-01-12T19:05:41.578Z,97404.84
2023-01-12T19:09:43.769Z,97410.13
2023-01-12T19:14:04.378Z,97405.06
2023-01-12T19:18:06.391Z,97410.50
2023-01-12T19:22:27.085Z,97414.94
2023-01-12T19:26:47.781Z,97413.38
2023-01-12T19:30:49.951Z,97408.16
2023-01-12T19:34:56.515Z,97401.22
2023-01-12T19:39:06.730Z,97402.91
2023-01-12T19:43:25.107Z,97406.44
2023-01-12T19:47:27.103Z,97389.84
2023-01-12T19:51:29.166Z,97394.28
2023-01-12T19:55:32.275Z,97389.78
2023-01-12T19:59:34.286Z,97382.66
2023-01-12T20:03:39.706Z,97372.91
2023-01-12T20:07:41.745Z,97369.31
2023-01-12T20:11:43.743Z,97372.00
2023-01-12T20:15:47.768Z,97365.22
2023-01-12T20:19:50.741Z,97377.47
2023-01-12T20:23:52.729Z,97369.94
2023-01-12T20:27:55.336Z,97365.53
2023-01-12T20:31:57.347Z,97362.94
2023-01-12T20:36:00.884Z,97369.09
2023-01-12T20:40:02.987Z,97371.72
2023-01-12T20:44:05.751Z,97359.41
2023-01-12T20:48:07.745Z,97356.78
2023-01-12T20:52:09.758Z,97359.41
2023-01-12T20:56:11.950Z,97348.09
2023-01-12T21:00:14.264Z,97340.88
2023-01-12T21:04:19.059Z,97344.56
2023-01-12T21:08:21.072Z,97344.72
2023-01-12T21:12:24.324Z,97344.84
2023-01-12T21:16:30.039Z,97333.47
2023-01-12T21:20:32.113Z,97338.63
2023-01-12T21:24:34.167Z,97330.72
2023-01-12T21:28:38.075Z,97312.16
2023-01-12T21:32:40.630Z,97312.28
2023-01-12T21:36:42.655Z,97311.94
2023-01-12T21:40:44.657Z,97300.16
2023-01-12T21:44:46.682Z,97297.84
2023-01-12T21:48:48.710Z,97278.94
2023-01-12T21:52:50.838Z,97288.59
2023-01-12T21:56:53.127Z,97274.78
2023-01-12T22:00:56.158Z,97285.34
2023-01-12T22:04:58.217Z,97277.59
2023-01-12T22:09:00.204Z,97273.28
2023-01-12T22:13:05.672Z,97267.97
2023-01-12T22:17:07.747Z,97262.84
2023-01-12T22:21:10.128Z,97263.69
2023-01-12T22:25:14.023Z,97261.06
2023-01-12T22:29:16.105Z,97262.91
2023-01-12T22:33:18.097Z,97268.13
2023-01-12T22:37:20.122Z,97268.13
2023-01-12T22:41:22.569Z,97259.38
2023-01-12T22:45:24.589Z,97261.97
2023-01-12T22:49:26.586Z,97254.13
2023-01-12T22:53:28.614Z,97248.97
2023-01-12T22:57:30.776Z,97252.28
2023-01-12T23:01:33.474Z,97242.69
2023-01-12T23:05:43.442Z,97251.38
2023-01-12T23:09:46.264Z,97230.47
2023-01-12T23:13:49.148Z,97242.69
2023-01-12T23:17:51.272Z,97248.63
2023-01-12T23:21:53.417Z,97245.00
2023-01-12T23:26:01.455Z,97239.72
2023-01-12T23:30:03.904Z,97226.41
2023-01-12T23:34:06.030Z,97217.63
2023-01-12T23:38:14.147Z,97216.72
2023-01-12T23:42:16.464Z,97208.34
2023-01-12T23:46:23.446Z,97214.31
2023-01-12T23:50:25.754Z,97202.22
2023-01-12T23:54:28.052Z,97203.41
2023-01-12T23:58:30.192Z,97191.91
